Time;durP1;ratioP1;P1;durP2;ratioP2;P2;SDS_P1;SDS_P2;PMS_P1;PMS_P2;Temp;Humidity;BMP_temperature;BMP_pressure;BME280_temperature;BME280_humidity;BME280_pressure;Samples;Min_cycle;Max_cycle;Signal;HPM_P1;HPM_P2
2023/04/10 00:00:44;;;;;;;32.00;16.23;;;;;;;9.67;87.78;102063.91;6101546;23;20041;-76
2023/04/10 00:03:10;;;;;;;30.13;15.20;;;;;;;9.42;89.46;102062.22;6101030;23;20188;-77
2023/04/10 00:05:36;;;;;;;32.70;17.42;;;;;;;9.51;89.51;102056.53;6100895;23;20800;-77
2023/04/10 00:08:02;;;;;;;32.22;16.20;;;;;;;9.53;88.89;102056.47;6074021;23;20047;-76
2023/04/10 00:10:30;;;;;;;29.45;14.93;;;;;;;9.46;89.63;102062.97;6073499;23;20022;-76
2023/04/10 00:12:56;;;;;;;31.33;15.98;;;;;;;9.47;89.71;102062.91;6098075;23;20021;-77
2023/04/10 00:15:22;;;;;;;33.10;16.23;;;;;;;9.25;90.86;102057.56;6098102;23;20014;-77
2023/04/10 00:17:50;;;;;;;28.63;15.10;;;;;;;9.36;90.04;102059.78;6096827;23;20009;-76
2023/04/10 00:20:16;;;;;;;28.77;15.57;;;;;;;9.31;90.47;102067.94;6093964;23;20028;-77
2023/04/10 00:22:42;;;;;;;29.27;15.18;;;;;;;9.36;91.18;102062.47;6094702;23;20022;-76
2023/04/10 00:25:10;;;;;;;28.05;15.68;;;;;;;9.20;91.17;102062.19;6102559;23;20018;-76
2023/04/10 00:27:36;;;;;;;31.95;15.55;;;;;;;9.31;92.02;102051.97;6102613;23;20018;-77
2023/04/10 00:30:01;;;;;;;30.13;14.25;;;;;;;9.23;91.93;102050.53;6100520;23;20018;-77
2023/04/10 00:32:27;;;;;;;28.52;13.35;;;;;;;9.18;93.14;102037.41;6067791;23;20425;-76
2023/04/10 00:34:52;;;;;;;26.67;13.55;;;;;;;8.93;95.59;102047.22;6096245;23;20760;-76
2023/04/10 00:37:18;;;;;;;26.50;14.23;;;;;;;9.06;95.24;102036.09;6096192;23;20018;-77
2023/04/10 00:39:44;;;;;;;26.70;14.07;;;;;;;9.06;93.86;102033.44;6097303;23;20049;-77
2023/04/10 00:42:09;;;;;;;23.92;12.48;;;;;;;9.17;93.28;102025.03;6094292;23;20021;-76
2023/04/10 00:44:36;;;;;;;29.17;14.43;;;;;;;8.95;95.10;102019.66;6097566;23;20025;-77
2023/04/10 00:47:06;;;;;;;30.25;14.65;;;;;;;9.01;95.36;102016.78;6071688;23;20013;-76
2023/04/10 00:49:32;;;;;;;26.05;13.98;;;;;;;8.98;95.12;102013.34;6071420;23;20609;-76
2023/04/10 00:51:58;;;;;;;27.70;13.90;;;;;;;9.02;94.51;102005.19;6100020;23;20014;-76
2023/04/10 00:54:24;;;;;;;29.40;13.95;;;;;;;9.02;94.42;102010.50;6101328;23;20653;-76
2023/04/10 00:56:51;;;;;;;32.85;14.98;;;;;;;8.97;94.40;102000.97;6102203;23;20017;-76
2023/04/10 00:59:17;;;;;;;23.95;14.15;;;;;;;8.94;94.30;101998.44;6102420;23;20028;-76
2023/04/10 01:01:43;;;;;;;24.50;13.75;;;;;;;8.94;94.39;101994.00;6074877;23;20079;-76
2023/04/10 01:04:13;;;;;;;27.60;14.35;;;;;;;8.92;95.95;101987.84;6099672;23;20794;-76
2023/04/10 01:06:56;;;;;;;26.65;14.23;;;;;;;8.96;94.30;101989.47;6098471;23;20017;-76
2023/04/10 01:09:38;;;;;;;29.05;14.32;;;;;;;8.77;94.96;101983.97;6098596;23;20013;-77
2023/04/10 01:12:25;;;;;;;27.63;14.80;;;;;;;8.82;95.43;101981.16;6074224;23;20025;-76
2023/04/10 01:15:07;;;;;;;31.58;14.68;;;;;;;8.89;94.99;101976.47;6072425;23;20433;-76
2023/04/10 01:17:51;;;;;;;27.67;14.52;;;;;;;8.71;94.93;101976.22;6079782;23;20077;-76
2023/04/10 01:20:24;;;;;;;26.27;12.65;;;;;;;8.76;96.38;101979.59;6077340;23;20636;-76
2023/04/10 01:23:05;;;;;;;29.13;14.85;;;;;;;8.71;97.25;101978.88;6080088;23;20014;-76
2023/04/10 01:25:47;;;;;;;24.70;13.80;;;;;;;8.88;94.89;101980.91;6106724;23;20033;-76
2023/04/10 01:28:50;;;;;;;25.77;14.02;;;;;;;8.72;95.35;101980.63;6073895;23;20017;-76
2023/04/10 01:31:24;;;;;;;24.70;12.80;;;;;;;8.81;96.49;101979.41;6099828;23;20045;-76
2023/04/10 01:33:56;;;;;;;29.67;13.85;;;;;;;8.68;96.16;101971.00;6075982;23;20014;-76
2023/04/10 01:36:27;;;;;;;29.65;14.40;;;;;;;8.78;96.03;101975.06;6101516;23;20097;-76
2023/04/10 01:38:55;;;;;;;26.25;12.77;;;;;;;8.73;96.94;101973.50;6076682;23;20021;-76
2023/04/10 01:41:22;;;;;;;29.88;14.50;;;;;;;8.70;97.14;101974.50;6102002;23;20100;-77
2023/04/10 01:43:51;;;;;;;26.27;13.80;;;;;;;8.53;97.55;101979.56;6075068;23;20036;-77
2023/04/10 01:46:19;;;;;;;29.10;13.65;;;;;;;8.59;98.33;101978.50;6074765;23;20097;-76
2023/04/10 01:48:46;;;;;;;24.67;13.63;;;;;;;8.61;98.99;101976.63;6077034;23;20132;-76
2023/04/10 01:51:14;;;;;;;23.50;13.30;;;;;;;8.66;100.00;101975.53;6078818;23;20468;-76
2023/04/10 01:53:46;;;;;;;30.88;14.50;;;;;;;8.53;99.46;101974.25;6074104;23;20107;-76
2023/04/10 01:56:12;;;;;;;26.63;13.70;;;;;;;8.44;99.32;101969.28;6074348;23;20392;-76
2023/04/10 01:58:43;;;;;;;31.30;13.98;;;;;;;8.54;99.12;101966.22;6100229;23;20104;-76
2023/04/10 02:01:09;;;;;;;26.90;14.48;;;;;;;8.36;100.00;101966.91;6073425;23;20025;-77
2023/04/10 02:03:35;;;;;;;28.52;15.10;;;;;;;8.62;98.40;101962.41;6075913;23;20018;-76
2023/04/10 02:06:25;;;;;;;28.08;14.20;;;;;;;8.51;100.00;101971.66;6079191;23;20544;-77
2023/04/10 02:09:21;;;;;;;31.48;16.50;;;;;;;8.44;99.22;101969.28;6107208;23;20021;-77
2023/04/10 02:12:00;;;;;;;32.47;16.15;;;;;;;8.40;99.57;101968.53;6080531;23;20018;-76
2023/04/10 02:14:30;;;;;;;32.25;15.85;;;;;;;8.33;100.00;101958.97;6104541;23;20029;-76
2023/04/10 02:17:01;;;;;;;27.52;14.70;;;;;;;8.23;100.00;101966.44;6101631;23;20081;-77
2023/04/10 02:19:29;;;;;;;26.85;13.90;;;;;;;8.24;100.00;101965.53;6076701;23;20635;-76
2023/04/10 02:21:57;;;;;;;28.48;14.05;;;;;;;8.26;100.00;101963.66;6100039;23;20398;-77
2023/04/10 02:24:23;;;;;;;28.55;14.63;;;;;;;8.25;100.00;101959.28;6074308;23;20374;-76
2023/04/10 02:26:50;;;;;;;27.45;13.80;;;;;;;8.15;100.00;101959.66;6102209;23;20014;-76
2023/04/10 02:29:17;;;;;;;28.77;13.77;;;;;;;8.32;100.00;101955.47;6100453;23;20017;-77
2023/04/10 02:31:43;;;;;;;29.73;13.90;;;;;;;8.41;100.00;101953.44;6099047;23;20392;-76
2023/04/10 02:34:10;;;;;;;25.45;13.57;;;;;;;8.22;100.00;101945.22;6072864;23;20057;-77
2023/04/10 02:36:53;;;;;;;28.13;13.52;;;;;;;8.35;99.99;101946.53;6070102;23;20025;-76
2023/04/10 02:39:20;;;;;;;25.58;11.90;;;;;;;8.27;100.00;101946.78;6073713;23;20006;-77
2023/04/10 02:41:49;;;;;;;24.35;12.20;;;;;;;8.19;100.00;101934.72;6101553;23;20037;-76
2023/04/10 02:44:15;;;;;;;26.55;12.95;;;;;;;8.20;100.00;101933.78;6085029;23;20014;-77
2023/04/10 02:46:41;;;;;;;29.20;13.63;;;;;;;8.24;100.00;101943.41;6080837;23;20077;-76
2023/04/10 02:49:07;;;;;;;24.55;12.77;;;;;;;8.38;99.57;101937.59;6103849;23;20010;-77
2023/04/10 02:51:37;;;;;;;28.58;13.40;;;;;;;8.30;99.84;101935.19;6106961;23;20688;-77
2023/04/10 02:54:03;;;;;;;24.48;13.95;;;;;;;8.46;98.20;101930.22;6052158;23;20076;-76
2023/04/10 02:56:33;;;;;;;21.38;12.13;;;;;;;8.38;98.13;101933.13;6101751;23;20030;-76
2023/04/10 02:58:59;;;;;;;27.55;13.10;;;;;;;8.35;100.00;101935.91;6075568;23;20177;-77
2023/04/10 03:01:25;;;;;;;29.98;14.27;;;;;;;8.36;97.95;101934.09;6071281;23;20373;-77
2023/04/10 03:03:52;;;;;;;28.08;14.85;;;;;;;8.32;97.97;101931.53;6100275;23;20025;-77
2023/04/10 03:06:27;;;;;;;24.48;13.20;;;;;;;8.32;98.26;101925.38;6071498;23;20339;-77
2023/04/10 03:08:55;;;;;;;27.85;13.68;;;;;;;8.31;98.01;101913.00;6076972;23;20464;-76
2023/04/10 03:11:21;;;;;;;23.75;12.50;;;;;;;8.36;98.06;101920.81;6109843;23;20365;-76
2023/04/10 03:13:47;;;;;;;28.50;14.75;;;;;;;8.26;98.70;101922.94;6076474;23;20018;-76
2023/04/10 03:16:14;;;;;;;26.73;13.43;;;;;;;8.24;99.13;101912.38;6103880;23;20014;-76
2023/04/10 03:18:41;;;;;;;24.77;12.75;;;;;;;8.38;98.33;101921.66;6053076;23;20014;-76
2023/04/10 03:21:09;;;;;;;27.48;14.00;;;;;;;8.36;97.24;101913.75;6102353;23;20071;-76
2023/04/10 03:23:35;;;;;;;32.47;14.15;;;;;;;8.29;99.00;101915.72;6074125;23;20041;-77
2023/04/10 03:26:03;;;;;;;25.55;13.40;;;;;;;8.17;99.12;101921.47;6072909;23;20014;-76
2023/04/10 03:28:32;;;;;;;26.52;13.57;;;;;;;8.23;98.83;101921.28;6073057;23;20073;-76
2023/04/10 03:30:58;;;;;;;24.58;12.77;;;;;;;8.02;100.00;101922.03;6098567;23;20657;-76
2023/04/10 03:33:24;;;;;;;23.67;12.80;;;;;;;7.99;100.00;101922.16;6073922;23;20028;-76
2023/04/10 03:35:50;;;;;;;31.85;13.60;;;;;;;7.88;100.00;101927.84;6075731;23;20014;-76
2023/04/10 03:38:15;;;;;;;28.40;13.75;;;;;;;8.04;100.00;101930.81;6100123;23;20820;-77
2023/04/10 03:40:41;;;;;;;23.92;13.10;;;;;;;8.08;100.00;101931.56;6076815;23;20016;-77
2023/04/10 03:43:08;;;;;;;25.38;13.00;;;;;;;8.00;100.00;101924.75;6077021;23;20062;-77
2023/04/10 03:45:35;;;;;;;24.33;12.70;;;;;;;8.08;100.00;101918.28;6054108;23;20101;-77
2023/04/10 03:48:01;;;;;;;23.65;11.82;;;;;;;7.87;100.00;101918.13;6075886;23;20018;-76
2023/04/10 03:50:36;;;;;;;23.73;12.98;;;;;;;8.01;100.00;101917.63;6074113;23;20033;-76
2023/04/10 03:53:01;;;;;;;25.85;13.02;;;;;;;7.86;100.00;101913.72;6076398;23;20022;-76
2023/04/10 03:55:27;;;;;;;26.15;13.00;;;;;;;7.88;100.00;101917.22;6103705;23;20022;-76
2023/04/10 03:57:53;;;;;;;25.65;13.30;;;;;;;7.81;100.00;101914.81;6054452;23;20025;-76
2023/04/10 04:00:23;;;;;;;23.67;12.52;;;;;;;7.74;100.00;101916.81;6103707;23;20022;-76
2023/04/10 04:02:57;;;;;;;29.48;13.93;;;;;;;7.75;100.00;101906.13;6078361;23;20017;-77
2023/04/10 04:05:41;;;;;;;25.55;12.45;;;;;;;7.87;100.00;101902.19;6102293;23;20053;-76
2023/04/10 04:08:22;;;;;;;24.60;12.77;;;;;;;7.77;100.00;101883.03;6057731;23;20053;-77
2023/04/10 04:11:06;;;;;;;25.88;14.02;;;;;;;7.72;100.00;101894.75;6077354;23;20026;-77
2023/04/10 04:13:43;;;;;;;28.45;14.27;;;;;;;7.60;100.00;101892.53;6055727;23;20053;-77
2023/04/10 04:16:18;;;;;;;26.08;14.48;;;;;;;7.65;100.00;101895.91;6075948;23;20081;-76
2023/04/10 04:18:49;;;;;;;29.70;13.82;;;;;;;7.71;100.00;101896.53;6072817;23;20010;-76
2023/04/10 04:21:28;;;;;;;28.20;13.02;;;;;;;7.58;100.00;101889.03;6077063;23;20518;-76
2023/04/10 04:24:03;;;;;;;34.08;13.77;;;;;;;7.50;100.00;101889.31;6103800;23;20013;-76
2023/04/10 04:26:47;;;;;;;27.58;14.50;;;;;;;7.61;100.00;101887.16;6103844;23;20568;-76
2023/04/10 04:29:28;;;;;;;30.33;14.70;;;;;;;7.50;100.00;101890.19;6079102;23;20125;-76
2023/04/10 04:32:23;;;;;;;27.25;13.60;;;;;;;7.54;100.00;101890.97;5956449;24;20035;-76
2023/04/10 04:35:17;;;;;;;27.33;12.98;;;;;;;7.58;100.00;101881.06;5958394;24;20665;-77
2023/04/10 04:38:12;;;;;;;27.98;12.95;;;;;;;7.67;100.00;101867.50;5954053;24;20020;-77
2023/04/10 04:40:57;;;;;;;26.48;13.80;;;;;;;7.67;100.00;101873.66;5959087;24;20023;-77
2023/04/10 04:43:38;;;;;;;21.77;11.48;;;;;;;7.50;100.00;101878.69;5962267;24;20024;-76
2023/04/10 04:46:16;;;;;;;23.25;11.73;;;;;;;7.36;100.00;101883.59;5960612;24;20092;-77
2023/04/10 04:49:02;;;;;;;29.40;13.13;;;;;;;7.64;100.00;101870.28;5958898;24;21007;-77
2023/04/10 04:51:50;;;;;;;25.85;13.45;;;;;;;7.77;100.00;101868.91;5962376;23;20020;-77
2023/04/10 04:54:35;;;;;;;26.35;13.32;;;;;;;7.74;100.00;101869.03;5957962;24;20020;-76
2023/04/10 04:57:21;;;;;;;27.20;13.75;;;;;;;7.72;100.00;101873.50;5953163;24;20032;-77
2023/04/10 04:59:55;;;;;;;24.98;13.70;;;;;;;7.89;100.00;101868.50;5955525;24;20767;-77
2023/04/10 05:02:39;;;;;;;25.50;13.45;;;;;;;7.83;100.00;101870.47;5953124;24;20052;-76
2023/04/10 05:05:28;;;;;;;27.02;13.48;;;;;;;7.98;100.00;101876.13;5928935;24;20559;-76
2023/04/10 05:08:21;;;;;;;25.25;13.20;;;;;;;8.17;99.89;101872.78;5939732;23;20030;-77
2023/04/10 05:11:21;;;;;;;24.77;12.68;;;;;;;8.21;99.86;101863.78;5953926;24;20032;-76
2023/04/10 05:14:22;;;;;;;25.85;13.02;;;;;;;8.18;100.00;101866.53;5954365;24;20096;-77
2023/04/10 05:17:11;;;;;;;22.40;11.63;;;;;;;8.20;99.68;101862.06;5948290;24;20028;-77
2023/04/10 05:19:55;;;;;;;22.92;12.65;;;;;;;8.36;99.38;101857.03;5954830;24;20043;-76
2023/04/10 05:22:51;;;;;;;23.85;12.88;;;;;;;8.34;98.76;101861.56;5911497;24;20023;-76
2023/04/10 05:25:35;;;;;;;28.48;13.32;;;;;;;8.69;98.09;101862.91;5953627;24;20012;-77
2023/04/10 05:28:14;;;;;;;26.73;13.15;;;;;;;8.54;97.96;101865.22;5953362;24;20674;-76
2023/04/10 05:31:09;;;;;;;23.13;13.13;;;;;;;8.48;98.05;101853.94;5954572;24;20059;-76
2023/04/10 05:34:05;;;;;;;33.28;13.63;;;;;;;8.76;97.02;101851.94;5949892;24;20055;-77
2023/04/10 05:36:38;;;;;;;23.38;12.80;;;;;;;8.74;98.27;101852.94;5932033;24;20024;-77
2023/04/10 05:39:19;;;;;;;29.40;14.75;;;;;;;9.11;95.60;101851.44;5931797;24;20750;-76
2023/04/10 05:42:10;;;;;;;25.30;12.80;;;;;;;9.35;94.49;101855.75;5949379;24;20850;-77
2023/04/10 05:45:01;;;;;;;21.60;12.38;;;;;;;9.24;94.29;101850.88;5935302;24;20024;-78
2023/04/10 05:47:46;;;;;;;23.92;13.40;;;;;;;9.53;91.43;101848.78;5992431;23;20085;-75
2023/04/10 05:50:30;;;;;;;25.40;13.52;;;;;;;9.70;90.90;101850.72;6106093;23;20310;-76
2023/04/10 05:53:18;;;;;;;22.80;12.25;;;;;;;9.63;91.86;101850.09;6076518;23;20021;-76
2023/04/10 05:56:09;;;;;;;22.45;12.38;;;;;;;9.65;90.79;101847.41;6102576;23;20045;-77
2023/04/10 05:59:05;;;;;;;21.65;12.65;;;;;;;9.81;89.44;101845.78;5957279;24;20023;-77
2023/04/10 06:01:52;;;;;;;26.23;12.65;;;;;;;9.70;89.02;101842.75;5955778;24;20323;-76
2023/04/10 06:04:17;;;;;;;21.42;11.73;;;;;;;9.96;87.90;101844.25;5951248;24;20741;-76
2023/04/10 06:06:44;;;;;;;22.35;11.65;;;;;;;10.16;86.92;101832.69;5950163;24;20016;-76
2023/04/10 06:09:10;;;;;;;23.23;12.70;;;;;;;10.47;84.34;101835.69;5954362;24;20075;-76
2023/04/10 06:11:36;;;;;;;24.38;12.30;;;;;;;10.55;82.33;101835.34;5956331;24;20028;-76
2023/04/10 06:14:02;;;;;;;20.13;11.02;;;;;;;10.37;82.22;101835.25;5904236;24;21061;-76
2023/04/10 06:16:35;;;;;;;25.73;12.45;;;;;;;10.53;83.42;101835.38;5952774;23;20019;-76
2023/04/10 06:19:00;;;;;;;21.73;11.43;;;;;;;10.93;80.13;101819.28;5933096;24;20035;-76
2023/04/10 06:21:26;;;;;;;19.15;10.48;;;;;;;11.11;79.49;101821.03;5929539;24;20046;-76
2023/04/10 06:23:52;;;;;;;24.33;13.23;;;;;;;11.12;79.09;101814.75;5928959;24;20480;-76
2023/04/10 06:26:18;;;;;;;24.27;13.68;;;;;;;10.82;79.82;101812.66;5949173;24;20023;-76
2023/04/10 06:28:43;;;;;;;23.98;11.63;;;;;;;10.88;80.16;101808.81;5951867;24;20015;-76
2023/04/10 06:31:12;;;;;;;21.00;11.45;;;;;;;11.20;77.07;101801.03;5933525;24;20024;-76
2023/04/10 06:33:38;;;;;;;20.17;11.45;;;;;;;10.75;77.10;101797.03;5955416;24;20020;-76
2023/04/10 06:36:06;;;;;;;19.27;10.77;;;;;;;11.32;76.75;101801.25;6034432;23;20018;-76
2023/04/10 06:38:40;;;;;;;18.67;11.27;;;;;;;11.38;75.25;101790.25;6071281;23;20459;-75
2023/04/10 06:41:06;;;;;;;20.75;10.45;;;;;;;11.52;75.32;101797.56;6077913;23;20054;-76
2023/04/10 06:43:41;;;;;;;19.15;10.80;;;;;;;11.83;73.74;101791.50;6066587;23;20014;-76
2023/04/10 06:46:07;;;;;;;21.13;11.32;;;;;;;11.87;71.17;101786.88;6069080;23;20036;-76
2023/04/10 06:48:32;;;;;;;19.75;11.13;;;;;;;12.11;71.45;101780.19;6068869;23;20787;-76
2023/04/10 06:51:01;;;;;;;23.38;10.52;;;;;;;12.26;70.50;101780.31;6066156;23;20787;-76
2023/04/10 06:53:27;;;;;;;23.42;11.15;;;;;;;12.75;68.57;101774.84;6064311;23;20042;-76
2023/04/10 06:55:53;;;;;;;17.00;9.82;;;;;;;13.37;67.99;101770.31;6067977;23;20240;-76
2023/04/10 06:58:23;;;;;;;23.00;10.35;;;;;;;12.93;66.42;101763.94;6063897;23;20014;-76
2023/04/10 07:00:48;;;;;;;19.35;10.93;;;;;;;13.26;65.50;101768.28;6079761;23;20093;-77
2023/04/10 07:03:14;;;;;;;19.10;10.85;;;;;;;12.80;65.52;101765.63;6097041;23;20559;-77
2023/04/10 07:05:43;;;;;;;16.98;10.20;;;;;;;12.98;66.67;101762.81;6073218;23;20018;-76
2023/04/10 07:08:08;;;;;;;16.55;10.07;;;;;;;13.31;65.33;101763.53;6100378;23;20024;-76
2023/04/10 07:10:44;;;;;;;16.40;9.85;;;;;;;13.51;64.48;101764.13;6049882;23;20171;-76
2023/04/10 07:13:09;;;;;;;17.05;10.30;;;;;;;13.07;65.69;101756.91;6096760;23;20017;-76
2023/04/10 07:15:38;;;;;;;15.93;10.75;;;;;;;13.86;64.40;101749.41;6098272;23;20025;-76
2023/04/10 07:18:05;;;;;;;15.85;10.05;;;;;;;13.38;63.95;101739.91;6073187;23;20076;-75
2023/04/10 07:20:31;;;;;;;15.85;9.18;;;;;;;13.54;63.08;101732.63;6101799;23;20723;-75
2023/04/10 07:22:57;;;;;;;15.98;9.43;;;;;;;13.70;63.72;101722.72;6101566;23;20018;-76
2023/04/10 07:25:22;;;;;;;18.05;9.18;;;;;;;13.98;62.75;101724.50;6074491;23;20020;-76
2023/04/10 07:27:48;;;;;;;14.70;9.70;;;;;;;14.49;61.27;101710.53;6101260;23;20047;-75
2023/04/10 07:30:13;;;;;;;15.52;8.73;;;;;;;14.73;60.08;101706.22;6073231;23;20072;-75
2023/04/10 07:32:40;;;;;;;16.17;9.73;;;;;;;14.61;60.75;101701.69;6050878;23;20014;-75
2023/04/10 07:35:06;;;;;;;20.75;9.68;;;;;;;14.46;60.70;101702.66;6076608;23;20017;-75
2023/04/10 07:37:32;;;;;;;18.42;10.07;;;;;;;14.80;60.80;101695.91;6099131;23;20077;-75
2023/04/10 07:39:58;;;;;;;14.40;9.55;;;;;;;14.65;60.92;101695.09;6100657;23;20045;-75
2023/04/10 07:42:23;;;;;;;15.10;10.18;;;;;;;14.28;59.51;101691.28;6098532;23;20553;-75
2023/04/10 07:44:49;;;;;;;16.10;9.50;;;;;;;13.84;60.03;101686.09;6077475;23;20016;-75
2023/04/10 07:47:14;;;;;;;15.70;9.52;;;;;;;14.71;60.33;101678.63;6101415;23;20018;-75
2023/04/10 07:49:40;;;;;;;16.40;9.85;;;;;;;14.77;59.48;101669.28;6070385;23;20025;-75
2023/04/10 07:52:06;;;;;;;15.82;9.45;;;;;;;14.43;58.32;101665.28;6099334;23;20022;-75
2023/04/10 07:54:33;;;;;;;14.45;9.50;;;;;;;15.07;59.72;101669.00;6098903;23;20017;-75
2023/04/10 07:56:59;;;;;;;15.10;9.40;;;;;;;14.57;59.43;101657.19;6100757;23;20014;-75
2023/04/10 07:59:26;;;;;;;15.70;9.48;;;;;;;14.67;59.75;101652.06;6100672;23;20014;-75
2023/04/10 08:01:52;;;;;;;15.52;9.85;;;;;;;14.45;58.79;101652.59;6101466;23;20029;-75
2023/04/10 08:04:17;;;;;;;14.55;8.13;;;;;;;14.55;59.54;101645.69;6073325;23;20059;-75
2023/04/10 08:06:46;;;;;;;16.05;10.05;;;;;;;14.63;58.64;101640.69;6097042;23;20013;-73
2023/04/10 08:09:11;;;;;;;16.15;9.30;;;;;;;14.24;59.40;101649.53;6098022;23;20014;-73
2023/04/10 08:11:36;;;;;;;14.30;9.38;;;;;;;14.67;59.19;101650.25;6101814;23;20433;-73
2023/04/10 08:14:02;;;;;;;14.00;8.80;;;;;;;14.51;59.21;101649.56;6077604;23;20022;-72
2023/04/10 08:16:30;;;;;;;15.13;9.80;;;;;;;14.19;59.70;101657.88;6097137;23;20806;-73
2023/04/10 08:18:58;;;;;;;14.77;9.57;;;;;;;14.21;60.32;101657.78;6072476;23;20010;-73
2023/04/10 08:21:25;;;;;;;13.90;9.18;;;;;;;14.53;59.49;101649.47;6090269;23;20014;-73
2023/04/10 08:23:53;;;;;;;22.15;10.65;;;;;;;14.83;60.42;101646.53;6094778;23;20018;-72
2023/04/10 08:26:19;;;;;;;15.15;9.48;;;;;;;15.06;59.81;101639.56;6093603;23;20014;-73
2023/04/10 08:28:49;;;;;;;15.65;9.77;;;;;;;15.60;57.18;101637.47;6093971;23;20098;-73
2023/04/10 08:31:14;;;;;;;13.73;8.75;;;;;;;15.82;58.21;101625.22;6095092;23;20024;-73
2023/04/10 08:33:40;;;;;;;12.90;8.50;;;;;;;15.61;56.77;101624.91;6089083;23;20745;-73
2023/04/10 08:36:11;;;;;;;16.77;9.73;;;;;;;15.93;56.92;101628.84;6091144;23;20709;-73
2023/04/10 08:38:38;;;;;;;17.42;8.88;;;;;;;16.08;54.91;101618.78;6094084;23;20024;-74
2023/04/10 08:41:05;;;;;;;15.85;9.63;;;;;;;16.23;56.25;101628.41;6094398;23;20672;-73
2023/04/10 08:43:33;;;;;;;15.18;8.43;;;;;;;16.46;56.19;101633.88;6095458;23;20014;-74
2023/04/10 08:46:00;;;;;;;12.68;8.20;;;;;;;17.14;56.25;101626.91;6096510;23;20025;-74
2023/04/10 08:48:31;;;;;;;17.77;8.95;;;;;;;16.43;55.97;101620.66;6068044;23;20094;-73
2023/04/10 08:51:00;;;;;;;11.30;7.72;;;;;;;16.62;56.83;101618.31;6096066;23;20021;-74
2023/04/10 08:53:29;;;;;;;11.77;7.80;;;;;;;16.90;54.95;101610.81;6096234;23;20014;-73
2023/04/10 08:55:55;;;;;;;12.38;7.80;;;;;;;16.66;54.94;101611.69;6095909;23;20028;-74
2023/04/10 08:58:23;;;;;;;12.73;7.72;;;;;;;16.37;54.38;101613.91;6095936;23;20117;-74
2023/04/10 09:00:49;;;;;;;12.90;7.95;;;;;;;16.61;55.39;101613.88;6069783;23;20021;-74
2023/04/10 09:03:16;;;;;;;14.43;8.02;;;;;;;16.53;52.83;101603.69;6095786;23;20013;-74
2023/04/10 09:05:41;;;;;;;12.95;7.45;;;;;;;16.56;54.19;101603.44;6094878;23;20013;-74
2023/04/10 09:08:11;;;;;;;11.73;7.80;;;;;;;16.82;53.23;101603.34;6097026;23;20021;-74
2023/04/10 09:10:36;;;;;;;13.63;8.15;;;;;;;16.71;53.64;101592.47;6069944;23;20018;-74
2023/04/10 09:13:02;;;;;;;10.93;6.65;;;;;;;16.60;55.12;101598.69;6095224;23;20018;-74
2023/04/10 09:15:27;;;;;;;13.57;8.00;;;;;;;16.40;54.83;101591.28;6091159;23;20342;-74
2023/04/10 09:18:01;;;;;;;10.93;8.05;;;;;;;17.20;52.93;101594.06;6090825;23;20013;-73
2023/04/10 09:20:31;;;;;;;9.30;7.13;;;;;;;17.60;52.87;101587.19;6089117;23;20390;-74
2023/04/10 09:22:57;;;;;;;12.25;7.88;;;;;;;18.11;52.83;101586.59;6066342;23;20300;-73
2023/04/10 09:25:38;;;;;;;9.25;6.95;;;;;;;17.63;52.72;101585.25;6093969;23;20088;-74
2023/04/10 09:28:06;;;;;;;11.15;7.95;;;;;;;17.19;54.63;101585.13;6094769;23;20072;-74
2023/04/10 09:30:42;;;;;;;12.25;7.70;;;;;;;16.89;53.09;101592.94;6094970;23;20018;-74
2023/04/10 09:33:29;;;;;;;15.30;8.07;;;;;;;17.20;53.15;101594.06;6068775;23;20093;-75
2023/04/10 09:36:00;;;;;;;13.18;7.95;;;;;;;17.26;54.10;101602.50;6095131;23;20018;-75
2023/04/10 09:38:26;;;;;;;12.07;8.15;;;;;;;17.24;52.89;101587.47;6094344;23;20056;-74
2023/04/10 09:40:51;;;;;;;13.13;7.97;;;;;;;17.01;52.82;101581.19;6096282;23;20014;-74
2023/04/10 09:43:18;;;;;;;13.38;7.63;;;;;;;16.89;51.72;101574.06;6094106;23;20014;-74
2023/04/10 09:45:49;;;;;;;11.82;8.45;;;;;;;17.57;52.88;101560.50;6068289;23;20044;-74
2023/04/10 09:48:15;;;;;;;13.38;8.75;;;;;;;18.18;53.18;101551.03;6094746;23;20029;-74
2023/04/10 09:50:41;;;;;;;12.93;8.18;;;;;;;18.31;52.14;101552.53;6094563;23;20754;-73
2023/04/10 09:53:11;;;;;;;11.50;7.55;;;;;;;18.21;51.63;101548.91;6094534;23;20129;-73
2023/04/10 09:55:37;;;;;;;12.10;8.13;;;;;;;18.28;51.77;101538.47;6093685;23;20020;-73
2023/04/10 09:58:05;;;;;;;13.75;9.00;;;;;;;17.84;52.20;101534.94;6068811;23;20017;-75
2023/04/10 10:00:38;;;;;;;11.02;7.90;;;;;;;17.86;52.49;101528.41;6094105;23;20087;-74
2023/04/10 10:03:08;;;;;;;15.38;8.95;;;;;;;17.29;53.02;101526.81;6094260;23;20021;-74
2023/04/10 10:05:36;;;;;;;12.85;7.70;;;;;;;17.26;53.55;101515.41;6098899;23;20018;-74
2023/04/10 10:08:02;;;;;;;12.63;8.20;;;;;;;17.99;53.73;101511.22;6099031;23;20014;-74
2023/04/10 10:10:27;;;;;;;14.57;8.77;;;;;;;17.80;53.59;101506.50;6098264;23;20022;-74
2023/04/10 10:12:59;;;;;;;11.50;7.78;;;;;;;17.54;54.28;101504.09;6093756;23;20299;-74
2023/04/10 10:15:45;;;;;;;;;;;;;;;16.95;53.87;101501.69;6098315;23;20435;-74
2023/04/10 10:18:24;;;;;;;13.40;7.68;;;;;;;16.45;54.93;101505.63;6047764;23;19912;-74
2023/04/10 10:20:49;;;;;;;14.60;8.48;;;;;;;16.81;54.17;101485.75;6101393;23;20493;-74
2023/04/10 10:23:20;;;;;;;16.23;8.32;;;;;;;16.72;54.57;101490.06;6100642;23;20483;-74
2023/04/10 10:25:47;;;;;;;11.63;7.85;;;;;;;17.01;53.95;101474.25;6102468;23;20130;-74
2023/04/10 10:28:13;;;;;;;12.45;8.13;;;;;;;16.80;53.19;101473.28;6101523;23;20013;-74
2023/04/10 10:30:40;;;;;;;11.48;7.03;;;;;;;16.70;55.39;101474.94;6103170;23;20040;-74
2023/04/10 10:33:06;;;;;;;12.75;7.47;;;;;;;17.30;53.86;101458.41;6077021;23;20005;-74
2023/04/10 10:35:36;;;;;;;10.43;7.38;;;;;;;17.42;53.41;101461.06;6076225;23;20109;-74
2023/04/10 10:38:03;;;;;;;11.65;7.35;;;;;;;17.56;55.38;101453.56;6104589;23;20097;-74
2023/04/10 10:41:11;;;;;;;17.48;7.68;;;;;;;17.45;52.56;101448.22;6103420;23;20105;-75
2023/04/10 10:43:44;;;;;;;12.48;7.65;;;;;;;17.24;52.49;101453.53;6103407;23;20026;-75
2023/04/10 10:46:45;;;;;;;18.52;7.90;;;;;;;17.43;53.26;101450.19;6099749;23;20145;-74
2023/04/10 10:49:11;;;;;;;11.40;7.43;;;;;;;17.57;53.85;101439.13;6080560;23;20333;-74
2023/04/10 10:51:48;;;;;;;11.65;7.78;;;;;;;17.89;54.31;101435.56;6093764;23;20420;-74
2023/04/10 10:54:33;;;;;;;11.32;6.93;;;;;;;18.26;53.09;101435.97;6094768;23;20020;-74
2023/04/10 10:57:00;;;;;;;15.45;8.00;;;;;;;17.53;54.24;101431.41;6094134;23;20022;-74
2023/04/10 10:59:47;;;;;;;13.27;7.22;;;;;;;17.75;54.57;101422.41;6094919;23;20013;-74
2023/04/10 11:02:18;;;;;;;12.70;6.95;;;;;;;18.27;54.08;101413.41;6095404;23;20020;-74
2023/04/10 11:04:50;;;;;;;14.55;6.80;;;;;;;18.43;54.40;101393.16;6091486;23;20447;-73
2023/04/10 11:07:17;;;;;;;8.90;6.45;;;;;;;17.88;52.84;101388.00;6093363;23;20014;-74
2023/04/10 11:09:49;;;;;;;10.93;6.70;;;;;;;18.39;53.28;101387.16;6067396;23;20096;-74
2023/04/10 11:12:18;;;;;;;18.50;6.60;;;;;;;18.30;51.97;101383.41;6067396;23;20117;-73
2023/04/10 11:14:55;;;;;;;13.85;6.82;;;;;;;17.86;53.01;101390.81;6094702;23;20018;-74
2023/04/10 11:17:49;;;;;;;13.55;6.55;;;;;;;18.62;54.74;101387.81;6093286;23;20010;-74
2023/04/10 11:20:26;;;;;;;11.20;6.60;;;;;;;18.60;53.43;101385.28;6065943;23;20109;-74
2023/04/10 11:23:12;;;;;;;13.43;6.28;;;;;;;18.76;53.72;101384.78;6093985;23;20014;-74
2023/04/10 11:25:54;;;;;;;12.48;6.10;;;;;;;18.90;52.85;101378.16;6066546;23;20022;-73
2023/04/10 11:28:40;;;;;;;;;;;;;;;18.99;51.88;101377.34;6093781;23;20085;-74
2023/04/10 11:31:20;;;;;;;8.38;5.60;;;;;;;18.83;51.77;101360.78;6044666;23;19920;-74
2023/04/10 11:33:59;;;;;;;11.00;6.15;;;;;;;18.82;52.01;101357.22;6092408;23;20751;-74
2023/04/10 11:36:25;;;;;;;10.10;7.05;;;;;;;19.38;52.26;101350.34;6093494;23;20556;-74